sensor_id;sensor_type;location;lat;lon;timestamp;pressure;altitude;pressure_sealevel;temperature;humidity
49945;BME280;35838;49.134;9.212;2023-04-06T00:01:29;100177.66;;;3.45;57.44
49945;BME280;35838;49.134;9.212;2023-04-06T00:03:00;100174.69;;;3.31;57.03
49945;BME280;35838;49.134;9.212;2023-04-06T00:04:33;100176.88;;;3.19;56.69
49945;BME280;35838;49.134;9.212;2023-04-06T00:06:04;100171.84;;;3.22;56.59
49945;BME280;35838;49.134;9.212;2023-04-06T00:07:38;100180.28;;;3.18;56.75
49945;BME280;35838;49.134;9.212;2023-04-06T00:09:12;100174.53;;;3.26;56.97
49945;BME280;35838;49.134;9.212;2023-04-06T00:10:45;100175.44;;;3.27;56.62
49945;BME280;35838;49.134;9.212;2023-04-06T00:12:19;100181.63;;;3.06;57.02
49945;BME280;35838;49.134;9.212;2023-04-06T00:13:52;100174.47;;;2.96;58.16
49945;BME280;35838;49.134;9.212;2023-04-06T00:15:23;100174.59;;;2.99;58.74
49945;BME280;35838;49.134;9.212;2023-04-06T00:17:00;100172.00;;;2.99;59.37
49945;BME280;35838;49.134;9.212;2023-04-06T00:18:33;100177.31;;;3.05;59.83
49945;BME280;35838;49.134;9.212;2023-04-06T00:20:07;100174.16;;;3.12;60.19
49945;BME280;35838;49.134;9.212;2023-04-06T00:21:39;100173.25;;;3.12;60.44
49945;BME280;35838;49.134;9.212;2023-04-06T00:23:12;100173.72;;;2.98;60.53
49945;BME280;35838;49.134;9.212;2023-04-06T00:24:46;100172.66;;;2.92;60.19
49945;BME280;35838;49.134;9.212;2023-04-06T00:26:17;100171.09;;;2.97;59.93
49945;BME280;35838;49.134;9.212;2023-04-06T00:27:51;100173.72;;;2.98;59.65
49945;BME280;35838;49.134;9.212;2023-04-06T00:29:25;100164.44;;;3.02;59.01
49945;BME280;35838;49.134;9.212;2023-04-06T00:30:56;100165.09;;;2.96;58.05
49945;BME280;35838;49.134;9.212;2023-04-06T00:32:32;100164.00;;;2.88;57.65
49945;BME280;35838;49.134;9.212;2023-04-06T00:34:06;100163.03;;;2.85;57.09
49945;BME280;35838;49.134;9.212;2023-04-06T00:35:40;100158.59;;;2.79;57.15
49945;BME280;35838;49.134;9.212;2023-04-06T00:37:13;100165.22;;;2.74;57.10
49945;BME280;35838;49.134;9.212;2023-04-06T00:38:47;100166.31;;;2.80;56.95
49945;BME280;35838;49.134;9.212;2023-04-06T00:40:21;100170.75;;;2.86;57.21
49945;BME280;35838;49.134;9.212;2023-04-06T00:41:54;100162.28;;;2.89;57.18
49945;BME280;35838;49.134;9.212;2023-04-06T00:43:28;100163.66;;;2.77;57.12
49945;BME280;35838;49.134;9.212;2023-04-06T00:45:02;100159.22;;;2.72;57.52
49945;BME280;35838;49.134;9.212;2023-04-06T00:46:33;100157.91;;;2.85;57.65
49945;BME280;35838;49.134;9.212;2023-04-06T00:48:10;100163.09;;;2.88;58.06
49945;BME280;35838;49.134;9.212;2023-04-06T00:49:43;100152.72;;;2.83;58.31
49945;BME280;35838;49.134;9.212;2023-04-06T00:51:14;100155.09;;;2.77;58.48
49945;BME280;35838;49.134;9.212;2023-04-06T00:52:48;100152.38;;;2.72;58.90
49945;BME280;35838;49.134;9.212;2023-04-06T00:54:22;100150.41;;;2.63;58.68
49945;BME280;35838;49.134;9.212;2023-04-06T00:55:55;100153.63;;;2.58;58.68
49945;BME280;35838;49.134;9.212;2023-04-06T00:57:26;100150.16;;;2.56;59.05
49945;BME280;35838;49.134;9.212;2023-04-06T00:59:00;100149.81;;;2.72;58.66
49945;BME280;35838;49.134;9.212;2023-04-06T01:00:31;100152.78;;;2.85;58.07
49945;BME280;35838;49.134;9.212;2023-04-06T01:02:05;100146.72;;;2.82;58.10
49945;BME280;35838;49.134;9.212;2023-04-06T01:03:41;100145.09;;;2.85;58.10
49945;BME280;35838;49.134;9.212;2023-04-06T01:05:14;100146.88;;;2.87;57.79
49945;BME280;35838;49.134;9.212;2023-04-06T01:06:48;100141.06;;;2.93;58.02
49945;BME280;35838;49.134;9.212;2023-04-06T01:08:19;100147.78;;;2.89;58.20
49945;BME280;35838;49.134;9.212;2023-04-06T01:09:53;100138.50;;;2.93;58.70
49945;BME280;35838;49.134;9.212;2023-04-06T01:11:26;100140.91;;;2.88;59.11
49945;BME280;35838;49.134;9.212;2023-04-06T01:13:02;100145.09;;;2.85;58.71
49945;BME280;35838;49.134;9.212;2023-04-06T01:14:36;100145.16;;;2.88;58.00
49945;BME280;35838;49.134;9.212;2023-04-06T01:16:09;100141.41;;;2.76;58.19
49945;BME280;35838;49.134;9.212;2023-04-06T01:17:41;100145.09;;;2.85;58.54
49945;BME280;35838;49.134;9.212;2023-04-06T01:19:17;100145.09;;;2.85;58.96
49945;BME280;35838;49.134;9.212;2023-04-06T01:20:48;100147.41;;;2.77;59.28
49945;BME280;35838;49.134;9.212;2023-04-06T01:22:24;100144.03;;;2.78;59.22
49945;BME280;35838;49.134;9.212;2023-04-06T01:23:58;100134.06;;;2.60;59.93
49945;BME280;35838;49.134;9.212;2023-04-06T01:25:29;100145.72;;;2.51;59.96
49945;BME280;35838;49.134;9.212;2023-04-06T01:27:02;100133.66;;;2.47;60.45
49945;BME280;35838;49.134;9.212;2023-04-06T01:28:33;100133.56;;;2.44;60.79
49945;BME280;35838;49.134;9.212;2023-04-06T01:30:08;100135.00;;;2.36;61.47
49945;BME280;35838;49.134;9.212;2023-04-06T01:31:41;100136.28;;;2.23;62.04
49945;BME280;35838;49.134;9.212;2023-04-06T01:33:12;100127.25;;;2.34;62.13
49945;BME280;35838;49.134;9.212;2023-04-06T01:34:46;100132.50;;;2.38;62.30
49945;BME280;35838;49.134;9.212;2023-04-06T01:36:20;100133.31;;;2.37;62.61
49945;BME280;35838;49.134;9.212;2023-04-06T01:37:54;100131.50;;;2.34;62.66
49945;BME280;35838;49.134;9.212;2023-04-06T01:39:27;100132.63;;;2.16;63.06
49945;BME280;35838;49.134;9.212;2023-04-06T01:41:01;100138.59;;;2.15;63.11
49945;BME280;35838;49.134;9.212;2023-04-06T01:42:32;100137.50;;;2.09;63.22
49945;BME280;35838;49.134;9.212;2023-04-06T01:44:05;100135.13;;;2.13;63.31
49945;BME280;35838;49.134;9.212;2023-04-06T01:45:39;100141.19;;;2.17;63.34
49945;BME280;35838;49.134;9.212;2023-04-06T01:47:10;100134.84;;;2.06;63.44
49945;BME280;35838;49.134;9.212;2023-04-06T01:48:44;100133.09;;;2.04;63.95
49945;BME280;35838;49.134;9.212;2023-04-06T01:50:15;100132.72;;;2.18;63.96
49945;BME280;35838;49.134;9.212;2023-04-06T01:51:48;100136.25;;;2.22;63.95
49945;BME280;35838;49.134;9.212;2023-04-06T01:53:22;100131.13;;;2.22;64.02
49945;BME280;35838;49.134;9.212;2023-04-06T01:54:56;100129.09;;;2.13;64.09
49945;BME280;35838;49.134;9.212;2023-04-06T01:56:27;100132.72;;;2.18;64.06
49945;BME280;35838;49.134;9.212;2023-04-06T01:58:01;100134.38;;;2.17;64.46
49945;BME280;35838;49.134;9.212;2023-04-06T01:59:32;100126.78;;;2.19;64.52
49945;BME280;35838;49.134;9.212;2023-04-06T02:01:05;100133.47;;;2.15;64.35
49945;BME280;35838;49.134;9.212;2023-04-06T02:02:36;100137.91;;;2.21;64.69
49945;BME280;35838;49.134;9.212;2023-04-06T02:04:10;100124.25;;;2.21;64.60
49945;BME280;35838;49.134;9.212;2023-04-06T02:05:44;100123.13;;;2.12;64.52
49945;BME280;35838;49.134;9.212;2023-04-06T02:07:15;100123.75;;;2.05;64.71
49945;BME280;35838;49.134;9.212;2023-04-06T02:08:51;100130.50;;;2.03;65.20
49945;BME280;35838;49.134;9.212;2023-04-06T02:10:25;100136.78;;;2.13;64.86
49945;BME280;35838;49.134;9.212;2023-04-06T02:11:56;100130.06;;;2.16;64.80
49945;BME280;35838;49.134;9.212;2023-04-06T02:13:31;100131.00;;;2.18;64.53
49945;BME280;35838;49.134;9.212;2023-04-06T02:15:06;100127.81;;;2.26;64.23
49945;BME280;35838;49.134;9.212;2023-04-06T02:16:37;100130.44;;;2.27;64.15
49945;BME280;35838;49.134;9.212;2023-04-06T02:18:10;100131.28;;;2.26;64.07
49945;BME280;35838;49.134;9.212;2023-04-06T02:19:44;100125.06;;;2.19;64.27
49945;BME280;35838;49.134;9.212;2023-04-06T02:21:15;100125.56;;;2.09;64.31
49945;BME280;35838;49.134;9.212;2023-04-06T02:22:50;100121.22;;;2.07;62.92
49945;BME280;35838;49.134;9.212;2023-04-06T02:24:27;100120.69;;;2.15;62.36
49945;BME280;35838;49.134;9.212;2023-04-06T02:26:00;100120.69;;;2.15;61.92
49945;BME280;35838;49.134;9.212;2023-04-06T02:27:34;100121.94;;;2.28;62.03
49945;BME280;35838;49.134;9.212;2023-04-06T02:29:05;100118.09;;;2.41;61.68
49945;BME280;35838;49.134;9.212;2023-04-06T02:30:39;100117.06;;;2.36;61.04
49945;BME280;35838;49.134;9.212;2023-04-06T02:32:12;100113.31;;;2.25;61.64
49945;BME280;35838;49.134;9.212;2023-04-06T02:33:46;100110.16;;;2.33;61.54
49945;BME280;35838;49.134;9.212;2023-04-06T02:35:20;100119.06;;;2.45;61.40
49945;BME280;35838;49.134;9.212;2023-04-06T02:36:53;100116.88;;;2.30;61.76
49945;BME280;35838;49.134;9.212;2023-04-06T02:38:24;100114.50;;;2.36;61.51
49945;BME280;35838;49.134;9.212;2023-04-06T02:40:01;100103.25;;;2.31;61.90
49945;BME280;35838;49.134;9.212;2023-04-06T02:41:32;100108.91;;;2.22;62.44
49945;BME280;35838;49.134;9.212;2023-04-06T02:43:05;100112.16;;;2.16;62.62
49945;BME280;35838;49.134;9.212;2023-04-06T02:44:39;100118.13;;;2.15;62.85
49945;BME280;35838;49.134;9.212;2023-04-06T02:46:13;100119.91;;;2.18;63.10
49945;BME280;35838;49.134;9.212;2023-04-06T02:47:46;100116.81;;;2.28;63.06
49945;BME280;35838;49.134;9.212;2023-04-06T02:49:17;100115.28;;;2.33;63.16
49945;BME280;35838;49.134;9.212;2023-04-06T02:50:51;100110.41;;;2.41;63.05
49945;BME280;35838;49.134;9.212;2023-04-06T02:52:25;100110.41;;;2.41;63.41
49945;BME280;35838;49.134;9.212;2023-04-06T02:53:58;100111.41;;;2.46;63.32
49945;BME280;35838;49.134;9.212;2023-04-06T02:55:32;100107.94;;;2.44;63.13
49945;BME280;35838;49.134;9.212;2023-04-06T02:57:07;100102.56;;;2.37;62.98
49945;BME280;35838;49.134;9.212;2023-04-06T02:58:38;100101.50;;;2.30;63.35
49945;BME280;35838;49.134;9.212;2023-04-06T03:00:12;100097.78;;;2.20;63.61
49945;BME280;35838;49.134;9.212;2023-04-06T03:01:46;100102.94;;;2.22;63.86
49945;BME280;35838;49.134;9.212;2023-04-06T03:03:17;100100.56;;;2.28;63.74
49945;BME280;35838;49.134;9.212;2023-04-06T03:04:51;100114.56;;;2.12;64.05
49945;BME280;35838;49.134;9.212;2023-04-06T03:06:24;100109.81;;;1.97;64.46
49945;BME280;35838;49.134;9.212;2023-04-06T03:07:58;100111.63;;;2.01;64.56
49945;BME280;35838;49.134;9.212;2023-04-06T07:43:24;100194.09;;;4.81;56.13
49945;BME280;35838;49.134;9.212;2023-04-06T07:44:58;100186.75;;;4.98;55.55
49945;BME280;35838;49.134;9.212;2023-04-06T07:46:32;100191.19;;;5.04;55.09
49945;BME280;35838;49.134;9.212;2023-04-06T07:48:06;100198.38;;;5.17;54.91
49945;BME280;35838;49.134;9.212;2023-04-06T07:49:40;100194.28;;;5.27;54.84
49945;BME280;35838;49.134;9.212;2023-04-06T07:51:14;100189.47;;;5.43;55.10
49945;BME280;35838;49.134;9.212;2023-04-06T07:52:48;100193.06;;;5.51;54.70
49945;BME280;35838;49.134;9.212;2023-04-06T07:54:21;100198.28;;;5.14;54.40
49945;BME280;35838;49.134;9.212;2023-04-06T07:55:55;100192.28;;;5.14;54.96
49945;BME280;35838;49.134;9.212;2023-04-06T07:57:29;100188.00;;;5.16;54.77
49945;BME280;35838;49.134;9.212;2023-04-06T07:59:05;100195.41;;;5.40;55.29
49945;BME280;35838;49.134;9.212;2023-04-06T08:00:39;100195.69;;;5.53;55.77
49945;BME280;35838;49.134;9.212;2023-04-06T08:02:12;100188.16;;;5.62;55.39
49945;BME280;35838;49.134;9.212;2023-04-06T08:03:46;100191.03;;;5.76;54.56
49945;BME280;35838;49.134;9.212;2023-04-06T08:05:19;100184.41;;;5.89;54.43
49945;BME280;35838;49.134;9.212;2023-04-06T08:06:53;100175.22;;;6.02;54.10
49945;BME280;35838;49.134;9.212;2023-04-06T08:08:27;100182.47;;;6.21;53.81
49945;BME280;35838;49.134;9.212;2023-04-06T08:10:01;100179.16;;;6.29;53.56
49945;BME280;35838;49.134;9.212;2023-04-06T08:11:34;100181.16;;;6.45;53.05
49945;BME280;35838;49.134;9.212;2023-04-06T08:13:08;100179.66;;;6.59;52.11
49945;BME280;35838;49.134;9.212;2023-04-06T08:14:44;100177.25;;;6.69;51.95
49945;BME280;35838;49.134;9.212;2023-04-06T08:16:18;100177.34;;;6.75;51.86
49945;BME280;35838;49.134;9.212;2023-04-06T08:17:52;100176.69;;;6.88;51.22
49945;BME280;35838;49.134;9.212;2023-04-06T08:19:27;100172.44;;;6.90;51.10
49945;BME280;35838;49.134;9.212;2023-04-06T08:21:01;100169.09;;;6.99;51.03
49945;BME280;35838;49.134;9.212;2023-04-06T08:22:34;100169.03;;;6.95;49.77
49945;BME280;35838;49.134;9.212;2023-04-06T08:24:08;100175.16;;;7.01;50.26
49945;BME280;35838;49.134;9.212;2023-04-06T08:25:42;100170.13;;;7.11;52.23
49945;BME280;35838;49.134;9.212;2023-04-06T08:27:16;100168.31;;;7.03;50.96
49945;BME280;35838;49.134;9.212;2023-04-06T08:28:50;100174.41;;;7.10;49.77
49945;BME280;35838;49.134;9.212;2023-04-06T08:30:26;100162.59;;;7.26;50.11
49945;BME280;35838;49.134;9.212;2023-04-06T08:32:00;100170.47;;;7.37;49.79
49945;BME280;35838;49.134;9.212;2023-04-06T08:33:35;100167.28;;;7.53;49.80
49945;BME280;35838;49.134;9.212;2023-04-06T08:35:09;100164.84;;;7.67;49.50
49945;BME280;35838;49.134;9.212;2023-04-06T08:36:43;100159.66;;;7.66;47.73
49945;BME280;35838;49.134;9.212;2023-04-06T08:38:17;100169.31;;;7.81;47.32
49945;BME280;35838;49.134;9.212;2023-04-06T08:39:50;100166.00;;;7.94;47.51
49945;BME280;35838;49.134;9.212;2023-04-06T08:41:24;100160.81;;;7.91;48.38
49945;BME280;35838;49.134;9.212;2023-04-06T08:42:58;100169.53;;;8.01;47.41
49945;BME280;35838;49.134;9.212;2023-04-06T08:44:33;100164.19;;;7.86;46.31
49945;BME280;35838;49.134;9.212;2023-04-06T08:46:11;100166.63;;;7.72;46.20
49945;BME280;35838;49.134;9.212;2023-04-06T08:47:45;100170.31;;;7.94;46.60
49945;BME280;35838;49.134;9.212;2023-04-06T08:49:19;100160.81;;;7.93;46.21
49945;BME280;35838;49.134;9.212;2023-04-06T08:50:53;100163.50;;;8.02;46.31
49945;BME280;35838;49.134;9.212;2023-04-06T08:52:27;100167.03;;;8.12;46.34
49945;BME280;35838;49.134;9.212;2023-04-06T08:54:04;100169.00;;;8.35;46.44
49945;BME280;35838;49.134;9.212;2023-04-06T08:55:37;100165.50;;;8.28;45.60
49945;BME280;35838;49.134;9.212;2023-04-06T08:57:12;100169.66;;;8.13;45.01
49945;BME280;35838;49.134;9.212;2023-04-06T08:58:45;100168.78;;;8.11;45.34
49945;BME280;35838;49.134;9.212;2023-04-06T09:00:21;100162.91;;;8.28;46.42
49945;BME280;35838;49.134;9.212;2023-04-06T09:01:57;100158.66;;;8.35;46.72
49945;BME280;35838;49.134;9.212;2023-04-06T09:03:31;100161.44;;;8.55;46.48
49945;BME280;35838;49.134;9.212;2023-04-06T09:05:05;100153.84;;;8.72;46.03
49945;BME280;35838;49.134;9.212;2023-04-06T09:06:38;100154.72;;;8.77;45.54
49945;BME280;35838;49.134;9.212;2023-04-06T09:08:12;100152.03;;;8.65;45.72
49945;BME280;35838;49.134;9.212;2023-04-06T09:09:46;100145.16;;;8.67;45.19
49945;BME280;35838;49.134;9.212;2023-04-06T09:11:22;100145.22;;;8.74;44.98
49945;BME280;35838;49.134;9.212;2023-04-06T09:13:02;100140.16;;;8.93;45.21
49945;BME280;35838;49.134;9.212;2023-04-06T09:14:36;100140.31;;;9.19;46.49
49945;BME280;35838;49.134;9.212;2023-04-06T09:16:11;100141.25;;;9.32;46.75
49945;BME280;35838;49.134;9.212;2023-04-06T09:17:47;100143.88;;;9.41;45.71
49945;BME280;35838;49.134;9.212;2023-04-06T09:19:22;100135.28;;;9.46;45.57
49945;BME280;35838;49.134;9.212;2023-04-06T09:21:00;100137.75;;;9.29;44.06
49945;BME280;35838;49.134;9.212;2023-04-06T09:22:37;100134.38;;;9.40;45.24
49945;BME280;35838;49.134;9.212;2023-04-06T09:24:10;100136.16;;;9.55;47.17
49945;BME280;35838;49.134;9.212;2023-04-06T09:25:44;100134.38;;;9.44;44.87
49945;BME280;35838;49.134;9.212;2023-04-06T09:27:18;100139.56;;;9.44;46.19
49945;BME280;35838;49.134;9.212;2023-04-06T09:28:52;100132.63;;;9.39;44.19
49945;BME280;35838;49.134;9.212;2023-04-06T09:30:26;100132.69;;;9.50;45.34
49945;BME280;35838;49.134;9.212;2023-04-06T09:32:03;100134.47;;;9.68;45.13
49945;BME280;35838;49.134;9.212;2023-04-06T09:33:40;100135.28;;;9.50;42.89
49945;BME280;35838;49.134;9.212;2023-04-06T09:35:14;100124.09;;;9.68;43.91
49945;BME280;35838;49.134;9.212;2023-04-06T09:36:50;100125.00;;;9.69;43.21
49945;BME280;35838;49.134;9.212;2023-04-06T09:38:24;100123.28;;;9.83;43.28
49945;BME280;35838;49.134;9.212;2023-04-06T09:40:02;100126.75;;;9.92;42.34
49945;BME280;35838;49.134;9.212;2023-04-06T09:41:36;100119.88;;;10.11;44.52
49945;BME280;35838;49.134;9.212;2023-04-06T09:43:10;100118.16;;;10.17;42.97
49945;BME280;35838;49.134;9.212;2023-04-06T09:44:44;100124.19;;;10.23;42.10
49945;BME280;35838;49.134;9.212;2023-04-06T09:46:17;100125.09;;;10.32;42.68
49945;BME280;35838;49.134;9.212;2023-04-06T09:47:54;100115.56;;;10.19;41.17
49945;BME280;35838;49.134;9.212;2023-04-06T09:49:31;100116.44;;;10.32;42.87
49945;BME280;35838;49.134;9.212;2023-04-06T09:51:06;100123.34;;;10.31;40.63
49945;BME280;35838;49.134;9.212;2023-04-06T09:52:40;100119.06;;;10.40;40.96
49945;BME280;35838;49.134;9.212;2023-04-06T09:54:15;100108.66;;;10.37;38.53
49945;BME280;35838;49.134;9.212;2023-04-06T09:55:51;100113.84;;;10.29;38.22
49945;BME280;35838;49.134;9.212;2023-04-06T09:57:29;100111.25;;;10.24;38.14
49945;BME280;35838;49.134;9.212;2023-04-06T09:59:05;100111.28;;;10.44;40.32
49945;BME280;35838;49.134;9.212;2023-04-06T10:00:42;100115.59;;;10.56;39.98
49945;BME280;35838;49.134;9.212;2023-04-06T10:02:20;100113.84;;;10.83;43.12
49945;BME280;35838;49.134;9.212;2023-04-06T10:03:56;100110.38;;;10.87;38.33
49945;BME280;35838;49.134;9.212;2023-04-06T10:05:37;100115.56;;;11.01;37.41
49945;BME280;35838;49.134;9.212;2023-04-06T10:07:11;100112.03;;;11.10;36.13
49945;BME280;35838;49.134;9.212;2023-04-06T10:08:46;100113.75;;;11.22;36.47
49945;BME280;35838;49.134;9.212;2023-04-06T10:10:21;100113.72;;;11.29;37.35
49945;BME280;35838;49.134;9.212;2023-04-06T10:11:55;100116.25;;;11.48;38.75
49945;BME280;35838;49.134;9.212;2023-04-06T10:13:28;100117.06;;;11.56;37.59
49945;BME280;35838;49.134;9.212;2023-04-06T10:15:02;100112.75;;;11.54;36.41
49945;BME280;35838;49.134;9.212;2023-04-06T10:16:35;100117.13;;;11.50;32.80
49945;BME280;35838;49.134;9.212;2023-04-06T10:18:10;100106.69;;;11.52;34.89
49945;BME280;35838;49.134;9.212;2023-04-06T10:19:45;100117.03;;;11.63;34.71
49945;BME280;35838;49.134;9.212;2023-04-06T10:21:23;100117.09;;;11.53;34.05
49945;BME280;35838;49.134;9.212;2023-04-06T10:22:59;100099.72;;;11.57;35.30
49945;BME280;35838;49.134;9.212;2023-04-06T10:24:35;100111.84;;;11.66;34.49
49945;BME280;35838;49.134;9.212;2023-04-06T10:26:12;100107.50;;;11.65;35.27
49945;BME280;35838;49.134;9.212;2023-04-06T10:27:47;100108.31;;;11.76;34.67
49945;BME280;35838;49.134;9.212;2023-04-06T10:29:20;100108.19;;;11.98;33.76
49945;BME280;35838;49.134;9.212;2023-04-06T10:30:58;100105.69;;;11.82;32.70
49945;BME280;35838;49.134;9.212;2023-04-06T10:32:32;100110.00;;;11.77;32.21
49945;BME280;35838;49.134;9.212;2023-04-06T10:34:06;100100.53;;;11.76;32.18
49945;BME280;35838;49.134;9.212;2023-04-06T10:35:40;100104.81;;;11.80;31.06
49945;BME280;35838;49.134;9.212;2023-04-06T10:37:16;100103.91;;;11.89;31.37
49945;BME280;35838;49.134;9.212;2023-04-06T10:38:53;100107.44;;;11.75;30.86
49945;BME280;35838;49.134;9.212;2023-04-06T10:40:27;100106.53;;;11.84;32.42
49945;BME280;35838;49.134;9.212;2023-04-06T10:42:05;100104.72;;;11.99;31.88
49945;BME280;35838;49.134;9.212;2023-04-06T10:43:40;100098.66;;;12.03;30.41
49945;BME280;35838;49.134;9.212;2023-04-06T10:45:23;100101.09;;;12.21;30.69
49945;BME280;35838;49.134;9.212;2023-04-06T10:46:57;100091.47;;;12.30;30.43
49945;BME280;35838;49.134;9.212;2023-04-06T10:48:38;100088.97;;;12.20;30.04
49945;BME280;35838;49.134;9.212;2023-04-06T10:50:14;100087.28;;;12.15;29.21
49945;BME280;35838;49.134;9.212;2023-04-06T10:51:51;100095.84;;;12.28;30.54
49945;BME280;35838;49.134;9.212;2023-04-06T10:53:27;100093.41;;;12.06;28.93
49945;BME280;35838;49.134;9.212;2023-04-06T10:55:01;100086.38;;;12.19;30.47
49945;BME280;35838;49.134;9.212;2023-04-06T10:56:37;100088.88;;;12.33;33.40
49945;BME280;35838;49.134;9.212;2023-04-06T10:58:10;100080.09;;;12.46;33.47
49945;BME280;35838;49.134;9.212;2023-04-06T10:59:44;100085.22;;;12.56;33.24
49945;BME280;35838;49.134;9.212;2023-04-06T11:01:18;100086.75;;;12.74;34.30
49945;BME280;35838;49.134;9.212;2023-04-06T11:02:58;100091.84;;;12.88;33.33
49945;BME280;35838;49.134;9.212;2023-04-06T11:04:32;100083.09;;;12.93;29.88
49945;BME280;35838;49.134;9.212;2023-04-06T11:06:05;100088.09;;;13.10;31.21
49945;BME280;35838;49.134;9.212;2023-04-06T11:07:39;100089.91;;;13.05;29.71
49945;BME280;35838;49.134;9.212;2023-04-06T11:09:25;100084.66;;;13.07;29.98
49945;BME280;35838;49.134;9.212;2023-04-06T11:11:05;100089.06;;;13.01;28.09
49945;BME280;35838;49.134;9.212;2023-04-06T11:12:39;100082.22;;;12.93;30.22
49945;BME280;35838;49.134;9.212;2023-04-06T11:14:13;100083.31;;;12.73;31.76
49945;BME280;35838;49.134;9.212;2023-04-06T11:15:47;100084.13;;;12.75;31.78
49945;BME280;35838;49.134;9.212;2023-04-06T11:17:25;100078.03;;;12.79;32.49
49945;BME280;35838;49.134;9.212;2023-04-06T11:18:59;100078.81;;;12.84;33.04
49945;BME280;35838;49.134;9.212;2023-04-06T11:20:33;100076.28;;;12.81;31.71
49945;BME280;35838;49.134;9.212;2023-04-06T11:22:07;100072.81;;;12.79;29.92
49945;BME280;35838;49.134;9.212;2023-04-06T11:23:41;100070.97;;;12.91;30.25
49945;BME280;35838;49.134;9.212;2023-04-06T11:25:17;100072.56;;;13.01;30.49
49945;BME280;35838;49.134;9.212;2023-04-06T11:26:52;100066.44;;;13.08;31.71
49945;BME280;35838;49.134;9.212;2023-04-06T11:28:25;100062.69;;;12.50;29.37
49945;BME280;35838;49.134;9.212;2023-04-06T11:29:59;100060.75;;;12.72;32.88
49945;BME280;35838;49.134;9.212;2023-04-06T11:31:37;100061.75;;;12.57;31.10
49945;BME280;35838;49.134;9.212;2023-04-06T11:33:11;100063.41;;;12.64;30.50
49945;BME280;35838;49.134;9.212;2023-04-06T11:34:44;100054.66;;;12.72;29.67
49945;BME280;35838;49.134;9.212;2023-04-06T11:36:20;100052.72;;;12.89;31.39
49945;BME280;35838;49.134;9.212;2023-04-06T11:37:53;100056.06;;;13.04;32.39
49945;BME280;35838;49.134;9.212;2023-04-06T11:39:28;100049.94;;;13.06;29.90
49945;BME280;35838;49.134;9.212;2023-04-06T11:41:05;100045.53;;;13.13;31.46
49945;BME280;35838;49.134;9.212;2023-04-06T11:42:39;100036.81;;;13.15;31.73
49945;BME280;35838;49.134;9.212;2023-04-06T11:44:13;100042.59;;;13.39;32.47
49945;BME280;35838;49.134;9.212;2023-04-06T11:45:46;100037.47;;;13.30;29.29
49945;BME280;35838;49.134;9.212;2023-04-06T11:47:20;100046.19;;;13.30;29.30
49945;BME280;35838;49.134;9.212;2023-04-06T11:49:01;100046.59;;;12.95;27.47
49945;BME280;35838;49.134;9.212;2023-04-06T11:50:35;100047.41;;;13.00;28.49
49945;BME280;35838;49.134;9.212;2023-04-06T11:52:15;100042.22;;;12.97;28.75
49945;BME280;35838;49.134;9.212;2023-04-06T11:53:49;100039.34;;;13.19;30.68
49945;BME280;35838;49.134;9.212;2023-04-06T11:55:25;100044.44;;;13.28;29.99
49945;BME280;35838;49.134;9.212;2023-04-06T11:57:08;100038.31;;;13.35;28.09
49945;BME280;35838;49.134;9.212;2023-04-06T11:58:42;100039.22;;;13.31;27.83
49945;BME280;35838;49.134;9.212;2023-04-06T12:00:16;100034.19;;;13.14;29.73
49945;BME280;35838;49.134;9.212;2023-04-06T12:01:50;100028.09;;;13.15;30.26
49945;BME280;35838;49.134;9.212;2023-04-06T12:03:23;100033.41;;;13.09;26.77
49945;BME280;35838;49.134;9.212;2023-04-06T12:04:57;100029.22;;;12.97;27.88
49945;BME280;35838;49.134;9.212;2023-04-06T12:06:31;100029.22;;;12.94;28.43
49945;BME280;35838;49.134;9.212;2023-04-06T12:08:05;100031.00;;;12.92;30.74
49945;BME280;35838;49.134;9.212;2023-04-06T12:09:39;100028.34;;;12.98;30.13
49945;BME280;35838;49.134;9.212;2023-04-06T12:11:13;100026.50;;;13.06;30.96
49945;BME280;35838;49.134;9.212;2023-04-06T12:12:49;100017.75;;;13.10;30.88
49945;BME280;35838;49.134;9.212;2023-04-06T12:14:23;100020.22;;;13.21;30.47
49945;BME280;35838;49.134;9.212;2023-04-06T12:15:56;100018.50;;;13.19;28.78
49945;BME280;35838;49.134;9.212;2023-04-06T12:17:30;100015.78;;;13.29;31.03
49945;BME280;35838;49.134;9.212;2023-04-06T12:19:03;100020.16;;;13.26;31.00
49945;BME280;35838;49.134;9.212;2023-04-06T12:20:37;100025.44;;;13.20;27.79
49945;BME280;35838;49.134;9.212;2023-04-06T12:22:11;100012.31;;;13.27;28.05
49945;BME280;35838;49.134;9.212;2023-04-06T12:23:45;100017.50;;;13.30;29.17
49945;BME280;35838;49.134;9.212;2023-04-06T12:25:18;100009.69;;;13.29;28.14
49945;BME280;35838;49.134;9.212;2023-04-06T12:26:52;100002.81;;;13.23;32.00
49945;BME280;35838;49.134;9.212;2023-04-06T12:28:30;99994.75;;;13.43;32.40
49945;BME280;35838;49.134;9.212;2023-04-06T12:30:04;99995.44;;;13.56;31.00
49945;BME280;35838;49.134;9.212;2023-04-06T12:31:38;99994.56;;;13.57;29.27
49945;BME280;35838;49.134;9.212;2023-04-06T12:33:13;100003.06;;;13.70;29.47
49945;BME280;35838;49.134;9.212;2023-04-06T12:34:47;99998.72;;;13.69;27.81
49945;BME280;35838;49.134;9.212;2023-04-06T12:36:20;99998.72;;;13.69;26.89
49945;BME280;35838;49.134;9.212;2023-04-06T12:37:54;99990.22;;;13.56;26.98
49945;BME280;35838;49.134;9.212;2023-04-06T12:39:28;100010.56;;;13.89;28.17
49945;BME280;35838;49.134;9.212;2023-04-06T12:41:02;100004.53;;;13.85;28.79
49945;BME280;35838;49.134;9.212;2023-04-06T12:42:36;100000.91;;;13.95;27.46
49945;BME280;35838;49.134;9.212;2023-04-06T12:44:14;99989.31;;;14.12;30.41
49945;BME280;35838;49.134;9.212;2023-04-06T12:45:48;99991.31;;;13.98;28.37
49945;BME280;35838;49.134;9.212;2023-04-06T12:47:21;99993.66;;;14.13;30.19
49945;BME280;35838;49.134;9.212;2023-04-06T12:48:56;99997.78;;;14.25;27.19
49945;BME280;35838;49.134;9.212;2023-04-06T12:50:30;99998.50;;;14.33;26.58
49945;BME280;35838;49.134;9.212;2023-04-06T12:52:04;99994.41;;;14.20;27.39